createdAt,value
2019-02-16T00:00:51.321Z,51.90
2019-02-16T00:01:52.192Z,51.90
2019-02-16T00:02:51.409Z,52.72
2019-02-16T00:03:51.299Z,52.51
2019-02-16T00:04:51.290Z,52.61
2019-02-16T00:05:51.284Z,52.00
2019-02-16T00:06:51.312Z,52.51
2019-02-16T00:07:51.240Z,52.64
2019-02-16T00:08:51.243Z,52.54
2019-02-16T00:09:51.232Z,52.44
2019-02-16T00:10:51.220Z,52.12
2019-02-16T00:11:51.422Z,52.33
2019-02-16T00:12:51.192Z,52.23
2019-02-16T00:13:51.182Z,52.23
2019-02-16T00:14:51.225Z,52.23
2019-02-16T00:15:51.182Z,52.33
2019-02-16T00:16:51.175Z,52.33
2019-02-16T00:17:51.341Z,52.23
2019-02-16T00:18:51.159Z,52.33
2019-02-16T00:19:51.123Z,52.12
2019-02-16T00:20:51.143Z,52.64
2019-02-16T00:21:51.115Z,52.23
2019-02-16T00:22:51.099Z,52.56
2019-02-16T00:23:51.197Z,52.64
2019-02-16T00:24:51.695Z,52.12
2019-02-16T00:25:51.171Z,52.54
2019-02-16T00:26:51.150Z,52.84
2019-02-16T00:27:51.059Z,52.95
2019-02-16T00:28:51.129Z,52.97
2019-02-16T00:29:51.797Z,52.97
2019-02-16T00:30:51.019Z,53.05
2019-02-16T00:31:51.006Z,53.17
2019-02-16T00:32:51.027Z,52.74
2019-02-16T00:33:50.991Z,53.08
2019-02-16T00:34:51.041Z,52.97
2019-02-16T00:35:50.958Z,52.76
2019-02-16T00:36:50.948Z,52.95
2019-02-16T00:37:50.942Z,52.97
2019-02-16T00:38:51.375Z,52.87
2019-02-16T00:39:50.926Z,52.64
2019-02-16T00:40:50.889Z,52.97
2019-02-16T00:41:50.916Z,52.97
2019-02-16T00:42:51.012Z,52.97
2019-02-16T00:43:50.877Z,53.28
2019-02-16T00:44:50.878Z,52.97
2019-02-16T00:45:51.879Z,53.28
2019-02-16T00:46:50.896Z,53.17
2019-02-16T00:47:50.805Z,53.00
2019-02-16T00:48:50.826Z,53.08
2019-02-16T00:49:50.930Z,52.89
2019-02-16T00:50:50.798Z,53.72
2019-02-16T00:51:50.776Z,53.79
2019-02-16T00:52:50.811Z,53.81
2019-02-16T00:53:50.828Z,53.28
2019-02-16T00:54:50.843Z,53.28
2019-02-16T00:55:50.782Z,53.30
2019-02-16T00:56:50.808Z,53.51
2019-02-16T00:57:50.791Z,53.61
2019-02-16T00:58:50.697Z,53.81
2019-02-16T00:59:50.694Z,54.13
2019-02-16T01:00:50.774Z,53.30
2019-02-16T01:01:50.643Z,53.41
2019-02-16T01:02:50.643Z,54.02
2019-02-16T01:03:50.611Z,53.61
2019-02-16T01:04:51.205Z,53.72
2019-02-16T01:05:50.619Z,53.51
2019-02-16T01:06:50.691Z,53.72
2019-02-16T01:07:50.602Z,54.15
2019-02-16T01:08:50.701Z,53.92
2019-02-16T01:09:50.575Z,53.94
2019-02-16T01:10:50.579Z,54.13
2019-02-16T01:11:50.643Z,53.92
2019-02-16T01:12:50.559Z,54.15
2019-02-16T01:13:50.641Z,53.74
2019-02-16T01:14:50.578Z,54.36
2019-02-16T01:15:50.559Z,53.85
2019-02-16T01:16:50.487Z,53.94
2019-02-16T01:17:50.499Z,54.23
2019-02-16T01:18:50.504Z,53.85
2019-02-16T01:19:50.558Z,54.46
2019-02-16T01:20:50.450Z,54.46
2019-02-16T01:21:50.465Z,54.56
2019-02-16T01:22:50.443Z,54.66
2019-02-16T01:23:50.504Z,54.05
2019-02-16T01:24:50.426Z,54.66
2019-02-16T01:25:50.391Z,54.66
2019-02-16T01:26:51.326Z,54.36
2019-02-16T01:27:50.430Z,54.66
2019-02-16T01:28:50.387Z,54.56
2019-02-16T01:29:50.363Z,54.56
2019-02-16T01:30:51.215Z,54.66
2019-02-16T01:31:50.352Z,54.77
2019-02-16T01:32:50.397Z,54.25
2019-02-16T01:33:50.290Z,54.66
2019-02-16T01:34:51.213Z,54.66
2019-02-16T01:35:50.281Z,54.36
2019-02-16T01:36:50.261Z,54.56
2019-02-16T01:37:50.376Z,54.05
2019-02-16T01:38:50.350Z,54.46
2019-02-16T01:39:50.249Z,55.18
2019-02-16T01:40:50.247Z,54.77
2019-02-16T01:41:50.210Z,54.77
2019-02-16T01:42:50.204Z,55.18
2019-02-16T01:43:50.205Z,55.00
2019-02-16T01:44:50.250Z,54.79
2019-02-16T01:45:50.180Z,55.00
2019-02-16T01:46:50.710Z,54.90
2019-02-16T01:47:50.166Z,55.00
2019-02-16T01:48:50.144Z,54.90
2019-02-16T01:49:50.217Z,54.59
2019-02-16T01:50:50.324Z,54.90
2019-02-16T01:51:50.111Z,55.10
2019-02-16T01:52:50.114Z,55.08
2019-02-16T01:53:50.232Z,55.21
2019-02-16T01:54:50.148Z,54.90
2019-02-16T01:55:50.062Z,55.21
2019-02-16T01:56:50.112Z,55.10
2019-02-16T01:57:50.092Z,55.30
2019-02-16T01:58:50.038Z,55.62
2019-02-16T01:59:50.037Z,55.10
2019-02-16T02:00:49.987Z,55.62
2019-02-16T02:01:50.079Z,55.54
2019-02-16T02:02:49.961Z,55.62
2019-02-16T02:03:49.979Z,55.41
2019-02-16T02:04:50.007Z,55.82
2019-02-16T02:05:49.949Z,55.85
2019-02-16T02:06:49.957Z,56.05
2019-02-16T02:07:49.983Z,56.05
2019-02-16T02:08:49.908Z,55.95
2019-02-16T02:09:50.716Z,56.02
2019-02-16T02:10:49.871Z,56.02
2019-02-16T02:11:50.123Z,55.93
2019-02-16T02:12:49.976Z,55.82
2019-02-16T02:13:49.880Z,55.85
2019-02-16T02:14:50.716Z,56.13
2019-02-16T02:15:49.847Z,56.26
2019-02-16T02:16:49.824Z,56.23
2019-02-16T02:17:49.841Z,56.26
2019-02-16T02:18:49.869Z,56.34
2019-02-16T02:19:49.784Z,56.05
2019-02-16T02:20:49.787Z,56.05
2019-02-16T02:21:49.760Z,56.36
2019-02-16T02:22:49.735Z,56.46
2019-02-16T02:23:49.839Z,56.57
2019-02-16T02:24:49.758Z,56.57
2019-02-16T02:25:49.687Z,56.36
2019-02-16T02:26:49.722Z,56.46
2019-02-16T02:27:49.683Z,56.57
2019-02-16T02:28:49.682Z,56.87
2019-02-16T02:29:49.743Z,56.57
2019-02-16T02:30:49.676Z,56.46
2019-02-16T02:31:49.663Z,56.67
2019-02-16T02:32:49.624Z,56.57
2019-02-16T02:33:49.706Z,56.67
2019-02-16T02:34:49.645Z,56.77
2019-02-16T02:35:50.221Z,56.90
2019-02-16T02:36:49.757Z,57.21
2019-02-16T02:37:49.593Z,57.31
2019-02-16T02:38:49.591Z,57.10
2019-02-16T02:39:49.643Z,57.01
2019-02-16T02:40:49.611Z,57.31
2019-02-16T02:41:49.614Z,57.52
2019-02-16T02:42:49.563Z,57.42
2019-02-16T02:43:49.507Z,57.52
2019-02-16T02:44:49.536Z,57.42
2019-02-16T02:45:49.505Z,57.52
2019-02-16T02:46:49.460Z,57.52
2019-02-16T02:47:49.575Z,57.52
2019-02-16T02:48:49.466Z,57.62
2019-02-16T02:49:49.493Z,57.52
2019-02-16T02:50:49.426Z,57.73
2019-02-16T02:51:51.943Z,57.73
2019-02-16T02:52:49.449Z,57.52
2019-02-16T02:53:49.496Z,57.82
2019-02-16T02:54:49.389Z,57.62
2019-02-16T02:55:49.400Z,57.52
2019-02-16T02:56:49.627Z,57.52
2019-02-16T02:57:49.386Z,57.52
2019-02-16T02:58:49.422Z,57.62
2019-02-16T02:59:49.320Z,57.52
2019-02-16T03:00:49.351Z,57.73
2019-02-16T03:01:49.311Z,57.62
2019-02-16T03:02:49.277Z,57.62
2019-02-16T03:03:49.331Z,57.52
2019-02-16T03:04:49.337Z,57.73
2019-02-16T03:05:49.269Z,57.50
2019-02-16T03:06:49.253Z,57.52
2019-02-16T03:07:49.241Z,57.52
2019-02-16T03:08:49.245Z,57.29
2019-02-16T03:09:49.302Z,57.62
2019-02-16T03:10:49.210Z,57.08
2019-02-16T03:11:49.234Z,57.39
2019-02-16T03:12:49.228Z,57.50
2019-02-16T03:13:49.192Z,57.52
2019-02-16T03:14:49.142Z,57.52
2019-02-16T03:15:49.149Z,57.31
2019-02-16T03:16:49.730Z,57.39
2019-02-16T03:17:49.198Z,57.59
2019-02-16T03:18:49.138Z,57.39
2019-02-16T03:19:49.122Z,57.42
2019-02-16T03:20:49.118Z,57.62
2019-02-16T03:21:49.076Z,57.42
2019-02-16T03:22:49.110Z,57.52
2019-02-16T03:23:49.142Z,57.50
2019-02-16T03:24:49.037Z,57.52
2019-02-16T03:25:49.028Z,57.52
2019-02-16T03:26:49.064Z,57.39
2019-02-16T03:27:49.026Z,57.29
2019-02-16T03:28:49.060Z,57.52
2019-02-16T03:29:48.987Z,57.62
2019-02-16T03:30:49.054Z,57.62
2019-02-16T03:31:48.987Z,57.62
2019-02-16T03:32:48.969Z,57.73
2019-02-16T03:33:48.968Z,57.62
2019-02-16T03:34:48.966Z,57.31
2019-02-16T03:35:48.943Z,57.62
2019-02-16T03:36:49.000Z,57.62
2019-02-16T03:37:48.957Z,57.82
2019-02-16T03:38:48.912Z,57.52
2019-02-16T03:39:48.971Z,57.82
2019-02-16T03:40:48.869Z,57.62
2019-02-16T03:41:48.884Z,58.14
2019-02-16T03:42:48.889Z,57.62
2019-02-16T03:43:49.730Z,58.06
2019-02-16T03:44:48.833Z,58.16
2019-02-16T03:45:48.792Z,58.16
2019-02-16T03:46:48.852Z,57.96
2019-02-16T03:47:48.832Z,58.03
2019-02-16T03:48:48.775Z,58.37
2019-02-16T03:49:48.870Z,58.16
2019-02-16T03:50:48.750Z,58.37
2019-02-16T03:51:48.732Z,58.06
2019-02-16T03:52:48.725Z,58.06
2019-02-16T03:53:48.743Z,57.86
2019-02-16T03:54:48.778Z,58.47
2019-02-16T03:55:48.709Z,58.89
2019-02-16T03:56:48.679Z,58.58
2019-02-16T03:57:48.709Z,58.70
2019-02-16T03:58:48.666Z,58.70
2019-02-16T03:59:48.858Z,58.60
2019-02-16T04:00:48.705Z,58.81
2019-02-16T04:01:48.694Z,59.33
2019-02-16T04:02:48.707Z,59.22
2019-02-16T04:03:48.629Z,59.63
2019-02-16T04:04:48.587Z,59.66
2019-02-16T04:05:49.237Z,59.25
2019-02-16T04:06:48.672Z,59.86
2019-02-16T04:07:48.576Z,60.38
2019-02-16T04:08:48.726Z,59.77
2019-02-16T04:09:48.617Z,59.77
2019-02-16T04:10:48.567Z,60.17
2019-02-16T04:11:48.573Z,60.07
2019-02-16T04:12:48.503Z,60.31
2019-02-16T04:13:48.584Z,61.13
2019-02-16T04:14:48.491Z,61.24
2019-02-16T04:15:48.479Z,61.44
2019-02-16T04:16:48.517Z,61.33
2019-02-16T04:17:48.453Z,61.36
2019-02-16T04:18:48.458Z,60.95
2019-02-16T04:19:48.471Z,61.47
2019-02-16T04:20:48.512Z,61.05
2019-02-16T04:21:48.420Z,61.78
2019-02-16T04:22:48.424Z,61.60
2019-02-16T04:23:48.403Z,62.01
2019-02-16T04:24:48.361Z,62.22
2019-02-16T04:25:48.419Z,63.77
2019-02-16T04:26:48.566Z,62.74
2019-02-16T04:27:48.353Z,62.55
2019-02-16T04:28:48.327Z,62.74
2019-02-16T04:29:49.243Z,63.69
2019-02-16T04:30:48.304Z,62.87
2019-02-16T04:31:48.307Z,62.79
2019-02-16T04:32:48.371Z,64.14
2019-02-16T04:33:48.288Z,63.59
2019-02-16T04:34:48.287Z,63.79
2019-02-16T04:35:48.335Z,64.34
2019-02-16T04:36:48.268Z,64.14
2019-02-16T04:37:48.250Z,63.72
2019-02-16T04:38:48.217Z,64.48
2019-02-16T04:39:48.203Z,64.76
2019-02-16T04:40:48.213Z,64.27
2019-02-16T04:41:48.208Z,64.37
2019-02-16T04:42:48.266Z,64.99
2019-02-16T04:43:48.210Z,65.06
2019-02-16T04:44:48.162Z,65.51
2019-02-16T04:45:48.254Z,64.78
2019-02-16T04:46:48.141Z,64.48
2019-02-16T04:47:48.152Z,65.51
2019-02-16T04:48:48.374Z,65.51
2019-02-16T04:49:48.096Z,65.51
2019-02-16T04:50:48.743Z,65.23
2019-02-16T04:51:48.297Z,66.26
2019-02-16T04:52:48.085Z,65.92
2019-02-16T04:53:48.064Z,66.36
2019-02-16T04:54:48.187Z,66.26
2019-02-16T04:55:48.074Z,66.26
2019-02-16T04:56:48.261Z,65.54
2019-02-16T04:57:48.009Z,66.60
2019-02-16T04:58:48.101Z,66.81
2019-02-16T04:59:48.143Z,67.09
2019-02-16T05:00:48.028Z,67.02
2019-02-16T05:01:47.983Z,67.33
2019-02-16T05:02:48.358Z,67.46
2019-02-16T05:03:47.974Z,67.46
2019-02-16T05:04:47.919Z,67.46
2019-02-16T05:05:48.136Z,67.46
2019-02-16T05:06:48.259Z,67.36
2019-02-16T05:07:47.964Z,67.46
2019-02-16T05:08:47.955Z,67.25
2019-02-16T05:09:47.872Z,67.77
2019-02-16T05:10:48.011Z,68.29
2019-02-16T05:11:47.863Z,68.43
2019-02-16T05:12:47.903Z,68.29
2019-02-16T05:13:47.893Z,67.91
2019-02-16T05:14:47.803Z,68.32
2019-02-16T05:15:47.822Z,68.32
2019-02-16T05:16:47.807Z,68.01
2019-02-16T05:17:47.778Z,68.01
2019-02-16T05:18:47.801Z,68.32
2019-02-16T05:19:48.052Z,68.32
2019-02-16T05:20:47.822Z,68.74
2019-02-16T05:21:47.753Z,69.29
2019-02-16T05:22:47.759Z,69.49
2019-02-16T05:23:47.729Z,69.08
2019-02-16T05:24:47.749Z,69.04
2019-02-16T05:25:47.750Z,68.84
2019-02-16T05:26:47.707Z,68.77
2019-02-16T05:27:47.677Z,68.98
2019-02-16T05:28:47.651Z,69.39
2019-02-16T05:29:47.795Z,69.25
2019-02-16T05:30:47.719Z,69.39
2019-02-16T05:31:47.623Z,69.49
2019-02-16T05:32:47.662Z,69.29
2019-02-16T05:33:47.621Z,69.29
2019-02-16T05:34:47.606Z,69.08
2019-02-16T05:35:47.594Z,68.53
2019-02-16T05:36:47.626Z,68.84
2019-02-16T05:37:47.615Z,68.84
2019-02-16T05:38:47.540Z,69.04
2019-02-16T05:39:47.613Z,69.60
2019-02-16T05:40:47.554Z,68.94
2019-02-16T05:41:47.580Z,69.49
2019-02-16T05:42:47.513Z,69.49
2019-02-16T05:43:47.508Z,69.49
2019-02-16T05:44:47.637Z,69.29
2019-02-16T05:45:47.681Z,69.49
2019-02-16T05:46:47.470Z,68.98
2019-02-16T05:47:47.449Z,69.60
2019-02-16T05:48:47.590Z,69.49
2019-02-16T05:49:47.446Z,69.08
2019-02-16T05:50:47.561Z,68.84
2019-02-16T05:51:47.438Z,68.53
2019-02-16T05:52:54.010Z,68.43
2019-02-16T05:53:48.638Z,68.01
2019-02-16T05:54:47.402Z,68.43
2019-02-16T05:55:47.362Z,68.63
2019-02-16T05:56:47.360Z,68.01
2019-02-16T05:57:47.405Z,68.12
2019-02-16T05:58:47.361Z,68.01
2019-02-16T05:59:48.290Z,68.01
2019-02-16T06:00:47.379Z,68.43
2019-02-16T06:01:54.023Z,68.12
2019-02-16T06:02:48.299Z,68.12
2019-02-16T06:03:47.276Z,68.60
2019-02-16T06:04:47.307Z,68.43
2019-02-16T06:05:48.255Z,68.12
2019-02-16T06:06:47.340Z,67.57
2019-02-16T06:07:47.222Z,67.15
2019-02-16T06:08:47.253Z,67.25
2019-02-16T06:09:47.218Z,67.67
2019-02-16T06:10:47.245Z,67.05
2019-02-16T06:11:47.241Z,66.94
2019-02-16T06:12:47.180Z,67.05
2019-02-16T06:13:47.169Z,66.74
2019-02-16T06:14:47.183Z,66.50
2019-02-16T06:15:47.308Z,66.29
2019-02-16T06:16:47.169Z,66.50
2019-02-16T06:17:47.221Z,66.09
2019-02-16T06:18:47.146Z,66.50
2019-02-16T06:19:47.117Z,65.88
2019-02-16T06:20:47.072Z,66.39
2019-02-16T06:21:47.091Z,66.16
2019-02-16T06:22:47.100Z,65.57
2019-02-16T06:23:47.107Z,65.54
2019-02-16T06:24:47.048Z,65.64
2019-02-16T06:25:47.213Z,65.54
2019-02-16T06:26:47.179Z,65.54
2019-02-16T06:27:47.073Z,65.85
2019-02-16T06:28:47.114Z,65.44
2019-02-16T06:29:47.298Z,65.64
2019-02-16T06:30:47.129Z,65.33
2019-02-16T06:31:46.989Z,65.23
2019-02-16T06:32:46.973Z,64.89
2019-02-16T06:33:46.984Z,64.71
2019-02-16T06:34:47.060Z,64.81
2019-02-16T06:35:46.947Z,64.92
2019-02-16T06:36:46.912Z,65.09
2019-02-16T06:37:47.005Z,65.12
2019-02-16T06:38:46.901Z,65.02
2019-02-16T06:39:46.876Z,65.09
2019-02-16T06:40:46.933Z,64.92
2019-02-16T06:41:46.845Z,64.48
2019-02-16T06:42:46.843Z,64.92
2019-02-16T06:43:46.867Z,64.48
2019-02-16T06:44:46.843Z,64.37
2019-02-16T06:45:46.922Z,64.58
2019-02-16T06:46:46.857Z,64.68
2019-02-16T06:47:46.787Z,64.37
2019-02-16T06:48:46.769Z,64.48
2019-02-16T06:49:46.777Z,64.27
2019-02-16T06:50:46.769Z,64.27
2019-02-16T06:51:46.814Z,64.27
2019-02-16T06:52:46.719Z,64.48
2019-02-16T06:53:46.713Z,64.37
2019-02-16T06:54:46.705Z,64.17
2019-02-16T06:55:46.759Z,64.17
2019-02-16T06:56:46.798Z,64.27
2019-02-16T06:57:46.679Z,64.06
2019-02-16T06:58:46.674Z,64.27
2019-02-16T06:59:46.677Z,64.06
2019-02-16T07:00:46.659Z,64.48
2019-02-16T07:01:46.725Z,64.24
2019-02-16T07:02:47.263Z,64.37
2019-02-16T07:03:46.712Z,64.17
2019-02-16T07:04:46.630Z,64.17
2019-02-16T07:05:46.595Z,64.58
2019-02-16T07:06:46.639Z,64.17
2019-02-16T07:07:46.576Z,64.27
2019-02-16T07:08:46.615Z,64.37
2019-02-16T07:09:46.564Z,64.48
2019-02-16T07:10:46.531Z,64.17
2019-02-16T07:11:46.538Z,64.06
2019-02-16T07:12:46.678Z,64.17
2019-02-16T07:13:46.511Z,64.06
2019-02-16T07:14:46.625Z,64.37
2019-02-16T07:15:46.465Z,64.37
2019-02-16T07:16:47.271Z,64.06
2019-02-16T07:17:47.267Z,64.37
2019-02-16T07:18:46.538Z,64.37
2019-02-16T07:19:46.450Z,64.14
2019-02-16T07:20:46.468Z,64.14
2019-02-16T07:21:46.470Z,64.14
2019-02-16T07:22:46.425Z,63.82
2019-02-16T07:23:46.392Z,63.82
2019-02-16T07:24:46.503Z,63.82
2019-02-16T07:25:46.428Z,64.03
2019-02-16T07:26:46.377Z,63.82
2019-02-16T07:27:46.376Z,64.03
2019-02-16T07:28:46.432Z,63.93
2019-02-16T07:29:46.330Z,63.72
2019-02-16T07:30:46.565Z,63.82
2019-02-16T07:31:46.423Z,63.79
2019-02-16T07:32:46.368Z,63.82
2019-02-16T07:33:46.419Z,64.14
2019-02-16T07:34:46.292Z,63.79
2019-02-16T07:35:46.287Z,64.00
2019-02-16T07:36:46.298Z,63.39
2019-02-16T07:37:46.280Z,63.69
2019-02-16T07:38:46.278Z,63.69
2019-02-16T07:39:46.208Z,62.66
2019-02-16T07:40:46.290Z,63.79
2019-02-16T07:41:46.788Z,62.76
2019-02-16T07:42:46.175Z,63.79
2019-02-16T07:43:46.164Z,62.76
2019-02-16T07:44:46.276Z,63.67
2019-02-16T07:45:46.201Z,62.63
2019-02-16T07:46:46.119Z,63.56
2019-02-16T07:47:46.131Z,63.67
2019-02-16T07:48:46.106Z,63.25
2019-02-16T07:49:46.117Z,62.43
2019-02-16T07:50:46.167Z,62.32
2019-02-16T07:51:46.076Z,62.19
2019-02-16T07:52:46.086Z,61.88
2019-02-16T07:53:46.051Z,61.78
2019-02-16T07:54:46.022Z,61.78
2019-02-16T07:55:46.024Z,61.68
2019-02-16T07:56:46.145Z,61.88
2019-02-16T07:57:46.086Z,61.78
2019-02-16T07:58:46.777Z,61.88
2019-02-16T07:59:46.053Z,61.68
2019-02-16T08:00:46.101Z,61.78
2019-02-16T08:01:45.971Z,61.75
2019-02-16T08:02:45.943Z,62.06
2019-02-16T08:03:45.951Z,61.96
2019-02-16T08:04:45.960Z,61.96
2019-02-16T08:05:45.903Z,60.93
2019-02-16T08:06:45.904Z,61.65
2019-02-16T08:07:45.913Z,61.65
2019-02-16T08:08:45.893Z,61.61
2019-02-16T08:09:45.945Z,61.24
2019-02-16T08:10:45.872Z,61.52
2019-02-16T08:11:45.848Z,61.61
2019-02-16T08:12:45.830Z,61.31
2019-02-16T08:13:46.786Z,60.89
2019-02-16T08:14:45.816Z,61.31
2019-02-16T08:15:45.879Z,61.10
2019-02-16T08:16:45.788Z,60.59
2019-02-16T08:17:45.764Z,61.52
2019-02-16T08:18:45.782Z,60.77
2019-02-16T08:19:45.873Z,61.69
2019-02-16T08:20:45.847Z,61.69
2019-02-16T08:21:46.040Z,61.87
2019-02-16T08:22:45.723Z,60.22
2019-02-16T08:23:45.711Z,59.70
2019-02-16T08:24:45.756Z,58.89
2019-02-16T08:25:45.696Z,58.65
2019-02-16T08:26:45.684Z,58.58
2019-02-16T08:27:45.698Z,58.86
2019-02-16T08:28:45.684Z,58.68
2019-02-16T08:29:45.677Z,58.24
2019-02-16T08:30:45.630Z,58.65
2019-02-16T08:31:45.657Z,58.65
2019-02-16T08:32:45.603Z,58.75
2019-02-16T08:33:45.607Z,58.34
2019-02-16T08:34:45.613Z,58.45
2019-02-16T08:35:45.583Z,58.45
2019-02-16T08:36:45.551Z,58.01
2019-02-16T08:37:45.679Z,58.14
2019-02-16T08:38:45.548Z,57.80
2019-02-16T08:39:45.520Z,57.59
2019-02-16T08:40:45.565Z,58.11
2019-02-16T08:41:45.519Z,57.80
2019-02-16T08:42:45.501Z,56.95
2019-02-16T08:43:45.549Z,56.95
2019-02-16T08:44:45.529Z,57.36
2019-02-16T08:45:45.457Z,57.16
2019-02-16T08:46:45.496Z,57.26
2019-02-16T08:47:45.439Z,56.85
2019-02-16T08:48:45.498Z,56.64
2019-02-16T08:49:45.457Z,56.95
2019-02-16T08:50:45.460Z,57.06
2019-02-16T08:51:45.404Z,56.93
2019-02-16T08:52:45.383Z,57.54
2019-02-16T08:53:49.759Z,57.85
2019-02-16T08:54:46.281Z,57.44
2019-02-16T08:55:47.041Z,56.59
2019-02-16T08:56:45.546Z,56.31
2019-02-16T08:57:45.322Z,55.98
2019-02-16T08:58:45.312Z,55.57
2019-02-16T08:59:45.304Z,55.57
2019-02-16T09:00:45.296Z,54.64
2019-02-16T09:01:45.476Z,55.26
2019-02-16T09:02:45.257Z,55.46
2019-02-16T09:03:45.357Z,55.98
2019-02-16T09:04:45.445Z,55.87
2019-02-16T09:05:45.241Z,54.82
2019-02-16T09:06:45.224Z,55.02
2019-02-16T09:07:45.407Z,55.13
2019-02-16T09:08:45.224Z,55.13
2019-02-16T09:09:45.192Z,54.82
2019-02-16T09:10:45.177Z,55.13
2019-02-16T09:11:45.268Z,54.82
2019-02-16T09:12:45.144Z,54.82
2019-02-16T09:13:45.787Z,54.90
2019-02-16T09:14:45.212Z,54.69
2019-02-16T09:15:45.126Z,54.38
2019-02-16T09:16:45.113Z,54.90
2019-02-16T09:17:45.394Z,54.59
2019-02-16T09:18:45.090Z,53.77
2019-02-16T09:19:45.178Z,53.77
2019-02-16T09:20:45.247Z,53.77
2019-02-16T09:21:45.084Z,54.49
2019-02-16T09:22:45.128Z,54.25
2019-02-16T09:23:45.115Z,53.97
2019-02-16T09:24:45.053Z,53.74
2019-02-16T09:25:45.015Z,54.05
2019-02-16T09:26:45.108Z,53.74
2019-02-16T09:27:44.993Z,54.25
2019-02-16T09:28:45.027Z,53.74
2019-02-16T09:29:45.062Z,54.15
2019-02-16T09:30:45.002Z,54.23
2019-02-16T09:31:44.944Z,53.33
2019-02-16T09:32:44.954Z,53.61
2019-02-16T09:33:44.962Z,52.69
2019-02-16T09:34:45.019Z,53.00
2019-02-16T09:35:44.915Z,53.51
2019-02-16T09:36:44.966Z,53.72
2019-02-16T09:37:44.884Z,52.90
2019-02-16T09:38:44.889Z,53.51
2019-02-16T09:39:44.854Z,53.51
2019-02-16T09:40:44.933Z,53.61
2019-02-16T09:41:44.825Z,54.23
2019-02-16T09:42:44.825Z,54.13
2019-02-16T09:43:44.843Z,53.39
2019-02-16T09:44:44.804Z,53.18
2019-02-16T09:45:44.874Z,52.77
2019-02-16T09:46:44.792Z,52.77
2019-02-16T09:47:44.781Z,52.77
2019-02-16T09:48:44.768Z,51.95
2019-02-16T09:49:44.744Z,52.56
2019-02-16T09:50:44.861Z,53.67
2019-02-16T09:51:44.773Z,53.87
2019-02-16T09:52:44.721Z,53.87
2019-02-16T09:53:44.717Z,52.75
2019-02-16T09:54:44.753Z,52.85
2019-02-16T09:56:46.302Z,52.95
2019-02-16T09:57:44.742Z,52.75
2019-02-16T09:58:44.660Z,52.64
2019-02-16T09:59:44.640Z,52.95
2019-02-16T10:00:44.635Z,52.34
2019-02-16T10:01:44.622Z,52.11
2019-02-16T10:02:44.753Z,52.11
2019-02-16T10:03:44.638Z,52.23
2019-02-16T10:04:44.697Z,52.00
2019-02-16T10:05:44.629Z,52.00
2019-02-16T10:06:44.584Z,52.11
2019-02-16T10:07:44.549Z,52.11
2019-02-16T10:08:44.619Z,52.21
2019-02-16T10:09:44.544Z,52.19
2019-02-16T10:10:44.524Z,52.49
2019-02-16T10:11:44.508Z,51.90
2019-02-16T10:12:44.639Z,52.59
2019-02-16T10:13:44.523Z,52.31
2019-02-16T10:14:44.509Z,52.51
2019-02-16T10:15:44.472Z,52.29
2019-02-16T10:16:44.487Z,52.29
2019-02-16T10:17:44.523Z,52.29
2019-02-16T10:18:44.425Z,52.29
2019-02-16T10:19:44.463Z,52.29
2019-02-16T10:20:44.479Z,51.98
2019-02-16T10:21:44.396Z,52.08
2019-02-16T10:22:44.441Z,52.08
2019-02-16T10:23:44.364Z,52.08
2019-02-16T10:24:44.368Z,51.95
2019-02-16T10:25:44.391Z,52.67
2019-02-16T10:26:44.458Z,52.47
2019-02-16T10:27:44.317Z,52.59
2019-02-16T10:28:44.339Z,51.95
2019-02-16T10:29:51.410Z,52.26
2019-02-16T10:30:44.356Z,52.37
2019-02-16T10:31:44.269Z,51.75
2019-02-16T10:32:44.266Z,51.53
2019-02-16T10:33:44.269Z,51.83
2019-02-16T10:34:44.253Z,52.24
2019-02-16T10:35:44.241Z,51.73
2019-02-16T10:36:44.271Z,51.73
2019-02-16T10:37:44.212Z,51.21
2019-02-16T10:38:44.201Z,51.12
2019-02-16T10:39:44.190Z,51.19
2019-02-16T10:40:44.187Z,51.29
2019-02-16T10:41:44.234Z,51.50
2019-02-16T10:42:44.265Z,51.19
2019-02-16T10:43:44.129Z,51.19
2019-02-16T10:44:44.125Z,51.19
2019-02-16T10:45:44.112Z,51.60
2019-02-16T10:46:44.137Z,51.29
2019-02-16T10:47:44.114Z,51.68
2019-02-16T10:48:44.124Z,51.78
2019-02-16T10:49:44.115Z,51.27
2019-02-16T10:50:44.133Z,50.76
2019-02-16T10:51:44.037Z,50.15
2019-02-16T10:52:44.171Z,50.02
2019-02-16T10:53:44.020Z,49.71
2019-02-16T10:54:44.017Z,49.71
2019-02-16T10:55:44.029Z,50.02
2019-02-16T10:56:44.003Z,49.92
2019-02-16T10:57:44.027Z,49.92
2019-02-16T10:58:44.017Z,49.79
2019-02-16T10:59:45.838Z,49.82
2019-02-16T11:00:43.972Z,49.18
2019-02-16T11:01:43.940Z,49.21
2019-02-16T11:02:44.156Z,48.59
2019-02-16T11:03:43.958Z,49.38
2019-02-16T11:04:43.888Z,49.00
2019-02-16T11:05:44.018Z,49.18
2019-02-16T11:06:43.966Z,49.29
2019-02-16T11:07:43.977Z,50.00
2019-02-16T11:08:43.883Z,49.79
2019-02-16T11:09:43.830Z,49.79
2019-02-16T11:10:43.942Z,48.96
2019-02-16T11:11:45.452Z,49.05
2019-02-16T11:12:43.891Z,49.16
2019-02-16T11:13:43.808Z,48.65
2019-02-16T11:14:43.803Z,48.85
2019-02-16T11:15:43.937Z,48.67
2019-02-16T11:16:43.820Z,48.67
2019-02-16T11:17:43.813Z,49.77
2019-02-16T11:18:43.762Z,49.67
2019-02-16T11:19:43.819Z,48.24
2019-02-16T11:20:43.840Z,48.85
2019-02-16T11:21:43.765Z,48.96
2019-02-16T11:22:43.707Z,48.14
2019-02-16T11:23:45.410Z,48.22
2019-02-16T11:24:43.663Z,48.42
2019-02-16T11:25:43.652Z,48.75
2019-02-16T11:26:44.044Z,48.22
2019-02-16T11:27:43.636Z,48.63
2019-02-16T11:28:43.683Z,48.52
2019-02-16T11:29:43.742Z,49.34
2019-02-16T11:30:43.593Z,49.44
2019-02-16T11:31:43.591Z,48.50
2019-02-16T11:32:43.679Z,49.44
2019-02-16T11:33:43.629Z,49.73
2019-02-16T11:34:43.548Z,48.71
2019-02-16T11:35:43.619Z,49.01
2019-02-16T11:36:43.531Z,48.71
2019-02-16T11:37:43.547Z,48.79
2019-02-16T11:38:43.617Z,49.29
2019-02-16T11:39:43.504Z,49.19
2019-02-16T11:40:43.574Z,49.80
2019-02-16T11:41:43.484Z,49.40
2019-02-16T11:42:43.619Z,49.09
2019-02-16T11:43:43.450Z,48.99
2019-02-16T11:44:43.458Z,48.18
2019-02-16T11:45:43.438Z,48.68
2019-02-16T11:46:43.418Z,49.29
2019-02-16T11:47:43.416Z,48.68
2019-02-16T11:48:43.513Z,48.48
2019-02-16T11:49:43.496Z,47.24
2019-02-16T11:50:43.432Z,47.16
2019-02-16T11:51:43.475Z,47.24
2019-02-16T11:52:43.369Z,47.36
2019-02-16T11:53:43.337Z,48.05
2019-02-16T11:54:45.632Z,47.54
2019-02-16T11:55:43.334Z,47.34
2019-02-16T11:56:43.308Z,47.95
2019-02-16T11:57:43.356Z,48.25
2019-02-16T11:58:43.294Z,48.96
2019-02-16T11:59:43.362Z,48.46
2019-02-16T12:00:43.266Z,48.05
2019-02-16T12:01:43.315Z,48.03
2019-02-16T12:02:43.286Z,48.03
2019-02-16T12:03:43.225Z,48.13
2019-02-16T12:04:43.261Z,47.72
2019-02-16T12:05:43.263Z,47.62
2019-02-16T12:06:43.295Z,47.01
2019-02-16T12:07:43.214Z,46.81
2019-02-16T12:08:43.205Z,47.39
2019-02-16T12:09:43.170Z,47.52
2019-02-16T12:10:43.212Z,47.11
2019-02-16T12:11:43.285Z,47.39
2019-02-16T12:12:43.303Z,47.90
2019-02-16T12:13:43.114Z,48.00
2019-02-16T12:14:43.115Z,47.50
2019-02-16T12:15:43.122Z,46.98
2019-02-16T12:16:43.137Z,47.29
2019-02-16T12:17:43.121Z,46.78
2019-02-16T12:18:43.124Z,46.89
2019-02-16T12:19:43.068Z,47.50
2019-02-16T12:20:43.062Z,46.28
2019-02-16T12:21:43.032Z,46.48
2019-02-16T12:22:43.017Z,46.78
2019-02-16T12:23:43.130Z,46.15
2019-02-16T12:24:43.037Z,46.45
2019-02-16T12:25:43.008Z,46.86
2019-02-16T12:26:43.045Z,45.34
2019-02-16T12:27:42.986Z,45.52
2019-02-16T12:28:43.014Z,45.20
2019-02-16T12:29:42.969Z,45.05
2019-02-16T12:30:42.925Z,44.95
2019-02-16T12:31:42.924Z,44.12
2019-02-16T12:32:42.921Z,44.01
2019-02-16T12:33:42.921Z,44.85
2019-02-16T12:34:42.884Z,44.74
2019-02-16T12:35:42.889Z,44.74
2019-02-16T12:36:42.863Z,44.85
2019-02-16T12:37:42.850Z,45.15
2019-02-16T12:38:42.844Z,44.95
2019-02-16T12:39:42.825Z,44.82
2019-02-16T12:40:42.863Z,44.10
2019-02-16T12:41:42.805Z,41.83
2019-02-16T12:42:42.989Z,41.56
2019-02-16T12:43:42.778Z,40.64
2019-02-16T12:44:42.772Z,40.52
2019-02-16T12:45:50.878Z,39.26
2019-02-16T12:46:43.791Z,39.25
2019-02-16T12:47:42.753Z,38.93
2019-02-16T12:48:42.722Z,39.03
2019-02-16T12:49:42.708Z,38.81
2019-02-16T12:50:42.704Z,38.30
2019-02-16T12:51:42.691Z,38.10
2019-02-16T12:52:42.695Z,38.30
2019-02-16T12:53:42.686Z,37.90